sensor_id;sensor_type;location;lat;lon;timestamp;pressure;altitude;pressure_sealevel;temperature;humidity
6224;BME280;3145;42.726;23.342;2023-11-22T00:01:53;72625.38;;;-142.70;85.03
6224;BME280;3145;42.726;23.342;2023-11-22T00:04:20;72625.38;;;-142.70;85.27
6224;BME280;3145;42.726;23.342;2023-11-22T00:06:48;72625.38;;;-142.70;85.56
6224;BME280;3145;42.726;23.342;2023-11-22T00:09:14;72623.34;;;-142.70;85.41
6224;BME280;3145;42.726;23.342;2023-11-22T00:11:41;72619.31;;;-142.70;85.71
6224;BME280;3145;42.726;23.342;2023-11-22T00:14:08;72613.28;;;-142.70;85.27
6224;BME280;3145;42.726;23.342;2023-11-22T00:16:34;72627.38;;;-142.70;85.83
6224;BME280;3145;42.726;23.342;2023-11-22T00:19:02;72629.38;;;-142.70;86.21
6224;BME280;3145;42.726;23.342;2023-11-22T00:21:30;72615.28;;;-142.70;86.24
6224;BME280;3145;42.726;23.342;2023-11-22T00:23:58;72609.25;;;-142.70;86.43
6224;BME280;3145;42.726;23.342;2023-11-22T00:26:25;72597.16;;;-142.70;86.29
6224;BME280;3145;42.726;23.342;2023-11-22T00:28:52;72595.16;;;-142.70;86.69
6224;BME280;3145;42.726;23.342;2023-11-22T00:31:19;72589.09;;;-142.70;85.85
6224;BME280;3145;42.726;23.342;2023-11-22T00:33:46;72587.09;;;-142.70;85.67
6224;BME280;3145;42.726;23.342;2023-11-22T00:36:13;72593.13;;;-142.70;85.29
6224;BME280;3145;42.726;23.342;2023-11-22T00:38:39;72581.03;;;-142.70;85.63
6224;BME280;3145;42.726;23.342;2023-11-22T00:41:07;72585.06;;;-142.70;85.69
6224;BME280;3145;42.726;23.342;2023-11-22T00:43:34;72613.28;;;-142.70;86.27
6224;BME280;3145;42.726;23.342;2023-11-22T00:46:01;72601.19;;;-142.70;85.66
6224;BME280;3145;42.726;23.342;2023-11-22T00:48:28;72605.22;;;-142.70;86.12
6224;BME280;3145;42.726;23.342;2023-11-22T00:50:55;72599.16;;;-142.70;86.86
6224;BME280;3145;42.726;23.342;2023-11-22T00:53:22;72607.22;;;-142.70;86.39
6224;BME280;3145;42.726;23.342;2023-11-22T00:55:48;72601.19;;;-142.70;86.62
6224;BME280;3145;42.726;23.342;2023-11-22T00:58:16;72593.13;;;-142.70;86.56
6224;BME280;3145;42.726;23.342;2023-11-22T01:00:43;72595.16;;;-142.70;86.21
6224;BME280;3145;42.726;23.342;2023-11-22T01:03:10;72583.06;;;-142.70;86.72
6224;BME280;3145;42.726;23.342;2023-11-22T01:05:37;72579.03;;;-142.70;86.84
6224;BME280;3145;42.726;23.342;2023-11-22T01:08:04;72568.97;;;-142.70;86.56
6224;BME280;3145;42.726;23.342;2023-11-22T01:10:30;72564.94;;;-142.70;86.61
6224;BME280;3145;42.726;23.342;2023-11-22T01:12:57;72556.88;;;-142.70;86.63
6224;BME280;3145;42.726;23.342;2023-11-22T01:15:25;72552.84;;;-142.70;86.47
6224;BME280;3145;42.726;23.342;2023-11-22T01:17:52;72550.81;;;-142.70;86.23
6224;BME280;3145;42.726;23.342;2023-11-22T01:20:19;72560.91;;;-142.70;86.28
6224;BME280;3145;42.726;23.342;2023-11-22T01:22:48;72560.91;;;-142.70;86.16
6224;BME280;3145;42.726;23.342;2023-11-22T01:25:14;72558.88;;;-142.70;86.28
6224;BME280;3145;42.726;23.342;2023-11-22T01:27:41;72562.91;;;-142.70;86.82
6224;BME280;3145;42.726;23.342;2023-11-22T01:30:08;72556.88;;;-142.70;86.63
6224;BME280;3145;42.726;23.342;2023-11-22T01:32:36;72548.81;;;-142.70;86.57
6224;BME280;3145;42.726;23.342;2023-11-22T01:35:04;72540.75;;;-142.70;87.07
6224;BME280;3145;42.726;23.342;2023-11-22T01:37:31;72538.75;;;-142.70;86.44
6224;BME280;3145;42.726;23.342;2023-11-22T01:39:58;72532.69;;;-142.70;86.64
6224;BME280;3145;42.726;23.342;2023-11-22T01:42:25;72524.63;;;-142.70;86.95
6224;BME280;3145;42.726;23.342;2023-11-22T01:44:52;72520.59;;;-142.70;86.56
6224;BME280;3145;42.726;23.342;2023-11-22T01:47:19;72512.56;;;-142.70;86.51
6224;BME280;3145;42.726;23.342;2023-11-22T01:49:47;72520.59;;;-142.70;86.39
6224;BME280;3145;42.726;23.342;2023-11-22T01:52:14;72524.63;;;-142.70;85.96
6224;BME280;3145;42.726;23.342;2023-11-22T01:54:41;72520.59;;;-142.70;86.33
6224;BME280;3145;42.726;23.342;2023-11-22T01:57:09;72536.72;;;-142.70;86.19
6224;BME280;3145;42.726;23.342;2023-11-22T01:59:37;72532.69;;;-142.70;86.73
6224;BME280;3145;42.726;23.342;2023-11-22T02:02:04;72532.69;;;-142.70;86.92
6224;BME280;3145;42.726;23.342;2023-11-22T02:04:31;72524.63;;;-142.70;86.34
6224;BME280;3145;42.726;23.342;2023-11-22T02:06:59;72518.59;;;-142.70;86.71
6224;BME280;3145;42.726;23.342;2023-11-22T02:09:26;72508.53;;;-142.70;86.46
6224;BME280;3145;42.726;23.342;2023-11-22T02:11:53;72504.50;;;-142.70;86.20
6224;BME280;3145;42.726;23.342;2023-11-22T02:14:20;72500.47;;;-142.70;86.01
6224;BME280;3145;42.726;23.342;2023-11-22T02:16:46;72490.38;;;-142.70;86.00
6224;BME280;3145;42.726;23.342;2023-11-22T02:19:14;72496.44;;;-142.70;85.76
6224;BME280;3145;42.726;23.342;2023-11-22T02:21:42;72494.41;;;-142.70;85.32
6224;BME280;3145;42.726;23.342;2023-11-22T02:24:10;72480.31;;;-142.70;85.32
6224;BME280;3145;42.726;23.342;2023-11-22T02:26:37;72488.38;;;-142.70;85.11
6224;BME280;3145;42.726;23.342;2023-11-22T02:29:04;72488.38;;;-142.70;84.87
6224;BME280;3145;42.726;23.342;2023-11-22T02:31:32;72488.38;;;-142.70;84.75
6224;BME280;3145;42.726;23.342;2023-11-22T02:33:59;72492.41;;;-142.70;84.84
6224;BME280;3145;42.726;23.342;2023-11-22T02:36:26;72492.41;;;-142.70;84.88
6224;BME280;3145;42.726;23.342;2023-11-22T02:38:52;72500.47;;;-142.70;84.59
6224;BME280;3145;42.726;23.342;2023-11-22T02:41:21;72496.44;;;-142.70;84.60
6224;BME280;3145;42.726;23.342;2023-11-22T02:43:47;72492.41;;;-142.70;84.95
6224;BME280;3145;42.726;23.342;2023-11-22T02:46:14;72486.34;;;-142.70;84.56
6224;BME280;3145;42.726;23.342;2023-11-22T02:48:41;72492.41;;;-142.70;83.88
6224;BME280;3145;42.726;23.342;2023-11-22T02:51:07;72496.44;;;-142.70;84.27
6224;BME280;3145;42.726;23.342;2023-11-22T02:53:35;72502.47;;;-142.70;84.67
6224;BME280;3145;42.726;23.342;2023-11-22T02:56:02;72496.44;;;-142.70;84.32
6224;BME280;3145;42.726;23.342;2023-11-22T02:58:30;72502.47;;;-142.70;84.73
6224;BME280;3145;42.726;23.342;2023-11-22T03:00:57;72492.41;;;-142.70;83.92
6224;BME280;3145;42.726;23.342;2023-11-22T03:03:24;72500.47;;;-142.70;83.89
6224;BME280;3145;42.726;23.342;2023-11-22T03:05:51;72500.47;;;-142.70;84.59
6224;BME280;3145;42.726;23.342;2023-11-22T03:08:17;72500.47;;;-142.70;84.38
6224;BME280;3145;42.726;23.342;2023-11-22T03:10:44;72498.44;;;-142.70;84.45
6224;BME280;3145;42.726;23.342;2023-11-22T03:13:11;72502.47;;;-142.70;84.93
6224;BME280;3145;42.726;23.342;2023-11-22T03:15:39;72500.47;;;-142.70;84.97
6224;BME280;3145;42.726;23.342;2023-11-22T03:18:07;72506.50;;;-142.70;84.55
6224;BME280;3145;42.726;23.342;2023-11-22T03:20:34;72524.63;;;-142.70;84.77
6224;BME280;3145;42.726;23.342;2023-11-22T03:23:01;72520.59;;;-142.70;84.80
6224;BME280;3145;42.726;23.342;2023-11-22T03:25:28;72524.63;;;-142.70;85.38
6224;BME280;3145;42.726;23.342;2023-11-22T03:27:55;72528.66;;;-142.70;85.00
6224;BME280;3145;42.726;23.342;2023-11-22T03:30:22;72528.66;;;-142.70;84.98
6224;BME280;3145;42.726;23.342;2023-11-22T03:32:50;72532.69;;;-142.70;85.49
6224;BME280;3145;42.726;23.342;2023-11-22T03:35:16;72528.66;;;-142.70;85.50
6224;BME280;3145;42.726;23.342;2023-11-22T03:37:43;72524.63;;;-142.70;85.60
6224;BME280;3145;42.726;23.342;2023-11-22T03:40:10;72524.63;;;-142.70;85.28
6224;BME280;3145;42.726;23.342;2023-11-22T03:42:39;72508.53;;;-142.70;85.73
6224;BME280;3145;42.726;23.342;2023-11-22T03:45:07;72496.44;;;-142.70;85.04
6224;BME280;3145;42.726;23.342;2023-11-22T03:47:33;72504.50;;;-142.70;84.88
6224;BME280;3145;42.726;23.342;2023-11-22T03:50:05;72518.59;;;-142.70;84.94
6224;BME280;3145;42.726;23.342;2023-11-22T03:52:32;72508.53;;;-142.70;85.05
6224;BME280;3145;42.726;23.342;2023-11-22T03:54:59;72512.56;;;-142.70;85.05
6224;BME280;3145;42.726;23.342;2023-11-22T03:57:25;72512.56;;;-142.70;85.65
6224;BME280;3145;42.726;23.342;2023-11-22T03:59:52;72508.53;;;-142.70;85.33
6224;BME280;3145;42.726;23.342;2023-11-22T04:02:19;72508.53;;;-142.70;85.18
6224;BME280;3145;42.726;23.342;2023-11-22T04:04:46;72512.56;;;-142.70;85.37
6224;BME280;3145;42.726;23.342;2023-11-22T04:07:14;72514.56;;;-142.70;85.27
6224;BME280;3145;42.726;23.342;2023-11-22T04:09:40;72516.56;;;-142.70;85.33
6224;BME280;3145;42.726;23.342;2023-11-22T04:12:08;72516.56;;;-142.70;85.53
6224;BME280;3145;42.726;23.342;2023-11-22T04:14:35;72516.56;;;-142.70;85.18
6224;BME280;3145;42.726;23.342;2023-11-22T04:17:01;72522.63;;;-142.70;84.84
6224;BME280;3145;42.726;23.342;2023-11-22T04:19:28;72528.66;;;-142.70;85.51
6224;BME280;3145;42.726;23.342;2023-11-22T04:21:55;72524.63;;;-142.70;84.93
6224;BME280;3145;42.726;23.342;2023-11-22T04:24:23;72528.66;;;-142.70;85.18
6224;BME280;3145;42.726;23.342;2023-11-22T04:26:50;72536.72;;;-142.70;84.85
6224;BME280;3145;42.726;23.342;2023-11-22T04:29:16;72542.75;;;-142.70;85.08
6224;BME280;3145;42.726;23.342;2023-11-22T04:31:43;72544.78;;;-142.70;84.92
6224;BME280;3145;42.726;23.342;2023-11-22T04:34:10;72544.78;;;-142.70;84.65
6224;BME280;3145;42.726;23.342;2023-11-22T04:36:37;72544.78;;;-142.70;85.30
6224;BME280;3145;42.726;23.342;2023-11-22T04:39:04;72548.81;;;-142.70;84.65
6224;BME280;3145;42.726;23.342;2023-11-22T04:41:33;72552.84;;;-142.70;84.99
6224;BME280;3145;42.726;23.342;2023-11-22T04:44:01;72558.88;;;-142.70;85.26
6224;BME280;3145;42.726;23.342;2023-11-22T04:46:28;72548.81;;;-142.70;85.57
6224;BME280;3145;42.726;23.342;2023-11-22T04:48:54;72544.78;;;-142.70;84.98
6224;BME280;3145;42.726;23.342;2023-11-22T04:51:21;72548.81;;;-142.70;84.82
6224;BME280;3145;42.726;23.342;2023-11-22T04:53:49;72552.84;;;-142.70;84.44
6224;BME280;3145;42.726;23.342;2023-11-22T04:56:16;72552.84;;;-142.70;85.08
6224;BME280;3145;42.726;23.342;2023-11-22T04:58:45;72562.91;;;-142.70;85.00
6224;BME280;3145;42.726;23.342;2023-11-22T05:01:11;72581.03;;;-142.70;85.12
6224;BME280;3145;42.726;23.342;2023-11-22T05:03:38;72585.06;;;-142.70;85.33
6224;BME280;3145;42.726;23.342;2023-11-22T05:06:05;72585.06;;;-142.70;85.76
6224;BME280;3145;42.726;23.342;2023-11-22T05:08:32;72593.13;;;-142.70;85.66
6224;BME280;3145;42.726;23.342;2023-11-22T05:10:59;72589.09;;;-142.70;85.33
6224;BME280;3145;42.726;23.342;2023-11-22T05:13:26;72589.09;;;-142.70;85.68
6224;BME280;3145;42.726;23.342;2023-11-22T05:15:54;72585.06;;;-142.70;86.00
6224;BME280;3145;42.726;23.342;2023-11-22T05:18:21;72581.03;;;-142.70;85.76
6224;BME280;3145;42.726;23.342;2023-11-22T05:20:47;72581.03;;;-142.70;85.53
6224;BME280;3145;42.726;23.342;2023-11-22T05:23:14;72572.97;;;-142.70;85.56
6224;BME280;3145;42.726;23.342;2023-11-22T05:25:41;72577.00;;;-142.70;85.83
6224;BME280;3145;42.726;23.342;2023-11-22T05:28:08;72581.03;;;-142.70;85.87
6224;BME280;3145;42.726;23.342;2023-11-22T05:30:34;72579.03;;;-142.70;85.57
6224;BME280;3145;42.726;23.342;2023-11-22T05:33:03;72575.00;;;-142.70;85.52
6224;BME280;3145;42.726;23.342;2023-11-22T05:35:29;72577.00;;;-142.70;86.08
6224;BME280;3145;42.726;23.342;2023-11-22T05:37:56;72568.97;;;-142.70;87.65
6224;BME280;3145;42.726;23.342;2023-11-22T05:40:23;72552.84;;;-142.70;88.44
6224;BME280;3145;42.726;23.342;2023-11-22T05:42:50;72544.78;;;-142.70;88.53
6224;BME280;3145;42.726;23.342;2023-11-22T05:45:17;72546.78;;;-142.70;88.48
6224;BME280;3145;42.726;23.342;2023-11-22T05:47:44;72548.81;;;-142.70;88.28
6224;BME280;3145;42.726;23.342;2023-11-22T05:50:12;72548.81;;;-142.70;88.19
6224;BME280;3145;42.726;23.342;2023-11-22T05:52:39;72556.88;;;-142.70;87.48
6224;BME280;3145;42.726;23.342;2023-11-22T05:55:06;72556.88;;;-142.70;87.56
6224;BME280;3145;42.726;23.342;2023-11-22T05:57:34;72558.88;;;-142.70;86.87
6224;BME280;3145;42.726;23.342;2023-11-22T06:00:00;72564.94;;;-142.70;86.95
6224;BME280;3145;42.726;23.342;2023-11-22T06:02:27;72572.97;;;-142.70;86.41
6224;BME280;3145;42.726;23.342;2023-11-22T06:04:54;72581.03;;;-142.70;86.18
6224;BME280;3145;42.726;23.342;2023-11-22T06:07:22;72587.09;;;-142.70;86.17
6224;BME280;3145;42.726;23.342;2023-11-22T06:09:49;72581.03;;;-142.70;86.48
6224;BME280;3145;42.726;23.342;2023-11-22T06:12:15;72589.09;;;-142.70;86.76
6224;BME280;3145;42.726;23.342;2023-11-22T06:14:42;72593.13;;;-142.70;86.61
6224;BME280;3145;42.726;23.342;2023-11-22T06:17:09;72585.06;;;-142.70;87.03
6224;BME280;3145;42.726;23.342;2023-11-22T06:19:36;72583.06;;;-142.70;86.70
6224;BME280;3145;42.726;23.342;2023-11-22T06:22:02;72593.13;;;-142.70;86.69
6224;BME280;3145;42.726;23.342;2023-11-22T06:24:31;72599.16;;;-142.70;87.04
6224;BME280;3145;42.726;23.342;2023-11-22T06:26:58;72599.16;;;-142.70;87.14
6224;BME280;3145;42.726;23.342;2023-11-22T06:29:25;72597.16;;;-142.70;87.23
6224;BME280;3145;42.726;23.342;2023-11-22T06:31:52;72593.13;;;-142.70;87.04
6224;BME280;3145;42.726;23.342;2023-11-22T06:34:19;72591.13;;;-142.70;86.92
6224;BME280;3145;42.726;23.342;2023-11-22T06:36:45;72599.16;;;-142.70;87.43
6224;BME280;3145;42.726;23.342;2023-11-22T06:39:12;72591.13;;;-142.70;87.79
6224;BME280;3145;42.726;23.342;2023-11-22T06:41:41;72589.09;;;-142.70;88.05
6224;BME280;3145;42.726;23.342;2023-11-22T06:44:08;72591.13;;;-142.70;88.10
6224;BME280;3145;42.726;23.342;2023-11-22T06:46:36;72591.13;;;-142.70;88.70
6224;BME280;3145;42.726;23.342;2023-11-22T06:49:02;72568.97;;;-142.70;89.68
6224;BME280;3145;42.726;23.342;2023-11-22T06:51:30;72544.78;;;-142.70;90.94
6224;BME280;3145;42.726;23.342;2023-11-22T06:53:57;72540.75;;;-142.70;91.21
6224;BME280;3145;42.726;23.342;2023-11-22T06:56:23;72528.66;;;-142.70;91.10
6224;BME280;3145;42.726;23.342;2023-11-22T06:58:51;72522.63;;;-142.70;91.30
6224;BME280;3145;42.726;23.342;2023-11-22T07:01:22;72516.56;;;-142.70;90.92
6224;BME280;3145;42.726;23.342;2023-11-22T07:03:51;72516.56;;;-142.70;90.18
6224;BME280;3145;42.726;23.342;2023-11-22T07:06:17;72504.50;;;-142.70;89.94
6224;BME280;3145;42.726;23.342;2023-11-22T07:08:44;72508.53;;;-142.70;88.54
6224;BME280;3145;42.726;23.342;2023-11-22T07:11:11;72512.56;;;-142.70;87.04
6224;BME280;3145;42.726;23.342;2023-11-22T07:13:39;72514.56;;;-142.70;87.75
6224;BME280;3145;42.726;23.342;2023-11-22T07:16:07;72508.53;;;-142.70;87.95
6224;BME280;3145;42.726;23.342;2023-11-22T07:18:34;72492.41;;;-142.70;88.17
6224;BME280;3145;42.726;23.342;2023-11-22T07:21:02;72498.44;;;-142.70;87.90
6224;BME280;3145;42.726;23.342;2023-11-22T07:23:29;72504.50;;;-142.70;87.46
6224;BME280;3145;42.726;23.342;2023-11-22T07:25:56;72500.47;;;-142.70;86.92
6224;BME280;3145;42.726;23.342;2023-11-22T07:28:23;72500.47;;;-142.70;86.85
6224;BME280;3145;42.726;23.342;2023-11-22T07:30:50;72508.53;;;-142.70;86.70
6224;BME280;3145;42.726;23.342;2023-11-22T07:33:18;72504.50;;;-142.70;86.19
6224;BME280;3145;42.726;23.342;2023-11-22T07:35:46;72512.56;;;-142.70;86.40
6224;BME280;3145;42.726;23.342;2023-11-22T07:38:12;72510.53;;;-142.70;86.30
6224;BME280;3145;42.726;23.342;2023-11-22T07:40:39;72516.56;;;-142.70;86.17
6224;BME280;3145;42.726;23.342;2023-11-22T07:43:07;72516.56;;;-142.70;86.35
6224;BME280;3145;42.726;23.342;2023-11-22T07:45:34;72516.56;;;-142.70;86.09
6224;BME280;3145;42.726;23.342;2023-11-22T07:48:01;72520.59;;;-142.70;86.13
6224;BME280;3145;42.726;23.342;2023-11-22T07:50:30;72520.59;;;-142.70;85.96
6224;BME280;3145;42.726;23.342;2023-11-22T07:52:56;72520.59;;;-142.70;86.01
6224;BME280;3145;42.726;23.342;2023-11-22T07:55:23;72520.59;;;-142.70;86.07
6224;BME280;3145;42.726;23.342;2023-11-22T07:57:50;72518.59;;;-142.70;86.30
6224;BME280;3145;42.726;23.342;2023-11-22T08:00:18;72516.56;;;-142.70;86.35
6224;BME280;3145;42.726;23.342;2023-11-22T08:02:45;72520.59;;;-142.70;86.29
6224;BME280;3145;42.726;23.342;2023-11-22T08:05:12;72516.56;;;-142.70;86.29
6224;BME280;3145;42.726;23.342;2023-11-22T08:07:42;72520.59;;;-142.70;86.57
6224;BME280;3145;42.726;23.342;2023-11-22T08:10:11;72516.56;;;-142.70;86.49
6224;BME280;3145;42.726;23.342;2023-11-22T08:12:45;72516.56;;;-142.70;86.36
6224;BME280;3145;42.726;23.342;2023-11-22T08:15:13;72516.56;;;-142.70;86.36
6224;BME280;3145;42.726;23.342;2023-11-22T08:17:41;72514.56;;;-142.70;86.77
6224;BME280;3145;42.726;23.342;2023-11-22T08:20:08;72504.50;;;-142.70;86.86
6224;BME280;3145;42.726;23.342;2023-11-22T08:22:38;72498.44;;;-142.70;87.08
6224;BME280;3145;42.726;23.342;2023-11-22T08:25:08;72490.38;;;-142.70;86.96
6224;BME280;3145;42.726;23.342;2023-11-22T08:27:38;72484.34;;;-142.70;87.34
6224;BME280;3145;42.726;23.342;2023-11-22T08:30:06;72480.31;;;-142.70;87.34
6224;BME280;3145;42.726;23.342;2023-11-22T08:32:35;72476.28;;;-142.70;87.50
6224;BME280;3145;42.726;23.342;2023-11-22T08:35:01;72480.31;;;-142.70;87.14
6224;BME280;3145;42.726;23.342;2023-11-22T08:37:33;72478.31;;;-142.70;86.93
6224;BME280;3145;42.726;23.342;2023-11-22T08:40:00;72484.34;;;-142.70;86.91
6224;BME280;3145;42.726;23.342;2023-11-22T08:42:28;72502.47;;;-142.70;86.87
6224;BME280;3145;42.726;23.342;2023-11-22T08:44:55;72500.47;;;-142.70;86.99
6224;BME280;3145;42.726;23.342;2023-11-22T08:47:22;72500.47;;;-142.70;87.15
6224;BME280;3145;42.726;23.342;2023-11-22T08:49:49;72496.44;;;-142.70;87.16
6224;BME280;3145;42.726;23.342;2023-11-22T08:52:15;72492.41;;;-142.70;86.70
6224;BME280;3145;42.726;23.342;2023-11-22T08:54:42;72490.38;;;-142.70;86.15
6224;BME280;3145;42.726;23.342;2023-11-22T08:57:09;72492.41;;;-142.70;85.71
6224;BME280;3145;42.726;23.342;2023-11-22T08:59:39;72490.38;;;-142.70;85.59
6224;BME280;3145;42.726;23.342;2023-11-22T09:02:05;72492.41;;;-142.70;85.96
6224;BME280;3145;42.726;23.342;2023-11-22T09:04:33;72488.38;;;-142.70;86.09
6224;BME280;3145;42.726;23.342;2023-11-22T09:07:00;72498.44;;;-142.70;86.19
6224;BME280;3145;42.726;23.342;2023-11-22T09:09:27;72492.41;;;-142.70;86.26
6224;BME280;3145;42.726;23.342;2023-11-22T09:11:56;72496.44;;;-142.70;86.44
6224;BME280;3145;42.726;23.342;2023-11-22T09:14:23;72492.41;;;-142.70;86.58
6224;BME280;3145;42.726;23.342;2023-11-22T09:16:51;72476.28;;;-142.70;86.56
6224;BME280;3145;42.726;23.342;2023-11-22T09:19:20;72482.34;;;-142.70;86.82
6224;BME280;3145;42.726;23.342;2023-11-22T09:21:46;72470.25;;;-142.70;86.79
6224;BME280;3145;42.726;23.342;2023-11-22T09:24:13;72472.25;;;-142.70;86.76
6224;BME280;3145;42.726;23.342;2023-11-22T09:26:40;72466.22;;;-142.70;86.79
6224;BME280;3145;42.726;23.342;2023-11-22T09:29:07;72472.25;;;-142.70;87.04
6224;BME280;3145;42.726;23.342;2023-11-22T09:31:35;72472.25;;;-142.70;87.00
6224;BME280;3145;42.726;23.342;2023-11-22T09:34:03;72460.16;;;-142.70;87.02
6224;BME280;3145;42.726;23.342;2023-11-22T09:36:30;72464.19;;;-142.70;86.96
6224;BME280;3145;42.726;23.342;2023-11-22T09:38:59;72450.09;;;-142.70;87.27
6224;BME280;3145;42.726;23.342;2023-11-22T09:41:28;72452.13;;;-142.70;87.24
6224;BME280;3145;42.726;23.342;2023-11-22T09:43:55;72454.13;;;-142.70;87.50
6224;BME280;3145;42.726;23.342;2023-11-22T09:46:23;72438.00;;;-142.70;87.34
6224;BME280;3145;42.726;23.342;2023-11-22T09:48:51;72429.97;;;-142.70;87.27
6224;BME280;3145;42.726;23.342;2023-11-22T09:51:23;72431.97;;;-142.70;87.24
6224;BME280;3145;42.726;23.342;2023-11-22T09:53:55;72425.94;;;-142.70;87.14
6224;BME280;3145;42.726;23.342;2023-11-22T09:56:24;72409.81;;;-142.70;87.06
6224;BME280;3145;42.726;23.342;2023-11-22T09:58:53;72395.72;;;-142.70;86.92
6224;BME280;3145;42.726;23.342;2023-11-22T10:01:21;72385.63;;;-142.70;86.75
6224;BME280;3145;42.726;23.342;2023-11-22T10:03:48;72383.63;;;-142.70;86.76
6224;BME280;3145;42.726;23.342;2023-11-22T10:06:16;72377.59;;;-142.70;86.59
6224;BME280;3145;42.726;23.342;2023-11-22T10:08:45;72363.47;;;-142.70;86.56
6224;BME280;3145;42.726;23.342;2023-11-22T10:11:14;72351.41;;;-142.70;86.22
6224;BME280;3145;42.726;23.342;2023-11-22T10:13:42;72335.28;;;-142.70;85.85
6224;BME280;3145;42.726;23.342;2023-11-22T10:16:13;72331.25;;;-142.70;85.33
6224;BME280;3145;42.726;23.342;2023-11-22T10:18:41;72317.16;;;-142.70;85.08
6224;BME280;3145;42.726;23.342;2023-11-22T10:21:19;72321.19;;;-142.70;84.25
6224;BME280;3145;42.726;23.342;2023-11-22T10:23:47;72319.16;;;-142.70;83.54
6224;BME280;3145;42.726;23.342;2023-11-22T10:26:17;72313.13;;;-142.70;82.62
6224;BME280;3145;42.726;23.342;2023-11-22T10:28:43;72315.13;;;-142.70;82.44
6224;BME280;3145;42.726;23.342;2023-11-22T10:31:10;72311.09;;;-142.70;82.14
6224;BME280;3145;42.726;23.342;2023-11-22T10:33:42;72303.06;;;-142.70;81.83
6224;BME280;3145;42.726;23.342;2023-11-22T10:36:09;72297.00;;;-142.70;81.43
6224;BME280;3145;42.726;23.342;2023-11-22T10:38:37;72288.94;;;-142.70;81.45
6224;BME280;3145;42.726;23.342;2023-11-22T10:41:06;72276.88;;;-142.70;81.15
6224;BME280;3145;42.726;23.342;2023-11-22T10:43:34;72266.78;;;-142.70;80.60
6224;BME280;3145;42.726;23.342;2023-11-22T10:46:02;72260.75;;;-142.70;80.35
6224;BME280;3145;42.726;23.342;2023-11-22T10:48:31;72258.72;;;-142.70;80.12
6224;BME280;3145;42.726;23.342;2023-11-22T10:51:00;72268.81;;;-142.70;79.63
6224;BME280;3145;42.726;23.342;2023-11-22T10:53:32;72266.78;;;-142.70;79.44
6224;BME280;3145;42.726;23.342;2023-11-22T10:56:04;72250.69;;;-142.70;79.42
6224;BME280;3145;42.726;23.342;2023-11-22T10:58:43;72244.63;;;-142.70;78.93
6224;BME280;3145;42.726;23.342;2023-11-22T11:01:15;72258.72;;;-142.70;78.91
6224;BME280;3145;42.726;23.342;2023-11-22T11:03:46;72254.72;;;-142.70;79.11
6224;BME280;3145;42.726;23.342;2023-11-22T11:06:20;72252.69;;;-142.70;79.05
6224;BME280;3145;42.726;23.342;2023-11-22T11:08:53;72244.63;;;-142.70;79.20
6224;BME280;3145;42.726;23.342;2023-11-22T11:11:21;72250.69;;;-142.70;78.54
6224;BME280;3145;42.726;23.342;2023-11-22T11:13:51;72242.63;;;-142.70;78.35
6224;BME280;3145;42.726;23.342;2023-11-22T11:16:18;72244.63;;;-142.70;78.58
6224;BME280;3145;42.726;23.342;2023-11-22T11:18:46;72238.59;;;-142.70;78.33
6224;BME280;3145;42.726;23.342;2023-11-22T11:21:15;72234.56;;;-142.70;78.28
6224;BME280;3145;42.726;23.342;2023-11-22T11:23:43;72234.56;;;-142.70;78.22
6224;BME280;3145;42.726;23.342;2023-11-22T11:26:15;72230.53;;;-142.70;79.24
6224;BME280;3145;42.726;23.342;2023-11-22T11:28:43;72224.50;;;-142.70;78.93
6224;BME280;3145;42.726;23.342;2023-11-22T11:31:12;72222.47;;;-142.70;78.69
6224;BME280;3145;42.726;23.342;2023-11-22T11:33:54;72226.50;;;-142.70;78.10
6224;BME280;3145;42.726;23.342;2023-11-22T11:36:23;72224.50;;;-142.70;77.80
6224;BME280;3145;42.726;23.342;2023-11-22T11:38:51;72226.50;;;-142.70;77.71
6224;BME280;3145;42.726;23.342;2023-11-22T11:41:24;72228.53;;;-142.70;78.21
6224;BME280;3145;42.726;23.342;2023-11-22T11:43:51;72226.50;;;-142.70;78.13
6224;BME280;3145;42.726;23.342;2023-11-22T11:46:20;72224.50;;;-142.70;78.32
6224;BME280;3145;42.726;23.342;2023-11-22T11:48:49;72208.38;;;-142.70;78.64
6224;BME280;3145;42.726;23.342;2023-11-22T11:51:17;72208.38;;;-142.70;78.45
6224;BME280;3145;42.726;23.342;2023-11-22T11:53:45;72216.44;;;-142.70;78.27
6224;BME280;3145;42.726;23.342;2023-11-22T11:56:12;72218.44;;;-142.70;78.21
6224;BME280;3145;42.726;23.342;2023-11-22T11:58:41;72216.44;;;-142.70;78.28
6224;BME280;3145;42.726;23.342;2023-11-22T12:01:08;72224.50;;;-142.70;78.48
6224;BME280;3145;42.726;23.342;2023-11-22T12:03:36;72220.47;;;-142.70;78.68
6224;BME280;3145;42.726;23.342;2023-11-22T12:06:04;72214.41;;;-142.70;79.00
6224;BME280;3145;42.726;23.342;2023-11-22T12:08:31;72204.34;;;-142.70;79.31
6224;BME280;3145;42.726;23.342;2023-11-22T12:11:01;72202.34;;;-142.70;79.08
6224;BME280;3145;42.726;23.342;2023-11-22T12:13:29;72210.38;;;-142.70;78.51
6224;BME280;3145;42.726;23.342;2023-11-22T12:15:57;72214.41;;;-142.70;78.45
6224;BME280;3145;42.726;23.342;2023-11-22T12:18:23;72226.50;;;-142.70;78.59
6224;BME280;3145;42.726;23.342;2023-11-22T12:20:55;72226.50;;;-142.70;78.86
6224;BME280;3145;42.726;23.342;2023-11-22T12:23:24;72226.50;;;-142.70;78.86
6224;BME280;3145;42.726;23.342;2023-11-22T12:25:55;72238.59;;;-142.70;79.16
6224;BME280;3145;42.726;23.342;2023-11-22T12:28:23;72236.56;;;-142.70;79.07
6224;BME280;3145;42.726;23.342;2023-11-22T12:30:50;72232.53;;;-142.70;79.40
6224;BME280;3145;42.726;23.342;2023-11-22T12:33:17;72226.50;;;-142.70;79.29
6224;BME280;3145;42.726;23.342;2023-11-22T12:35:45;72230.53;;;-142.70;79.04
6224;BME280;3145;42.726;23.342;2023-11-22T12:38:13;72220.47;;;-142.70;79.10
6224;BME280;3145;42.726;23.342;2023-11-22T12:40:43;72236.56;;;-142.70;79.38
6224;BME280;3145;42.726;23.342;2023-11-22T12:43:12;72234.56;;;-142.70;79.38
6224;BME280;3145;42.726;23.342;2023-11-22T12:45:40;72230.53;;;-142.70;79.26
6224;BME280;3145;42.726;23.342;2023-11-22T12:48:21;72224.50;;;-142.70;79.11
6224;BME280;3145;42.726;23.342;2023-11-22T12:50:50;72228.53;;;-142.70;78.83
6224;BME280;3145;42.726;23.342;2023-11-22T12:53:19;72230.53;;;-142.70;78.82